IGO300 VOBL-VEAT
Flight info
| Callsign | IGO300 |
|---|---|
| Flight time | N/A |
| Altitude | 37000 |
| Route | ANIRO8A ANIRO W47 KAMGU DCT VVZ A465 CEA B593 CML |
| Aircraft | A20N/M-SDE2E3FGHIRWXY/LB1 |
Departure
| Time | 2026-05-07 11:44 |
|---|---|
| Airport | Kempegowda International Airport Bengaluru (VOBL) |
Arrival
| Time | N/A |
|---|---|
| Airport | Agartala - Maharaja Bir Bikram Airport (VEAT) |
| Time | Latitude | Longitude | Altitude | Speed | Heading |
|---|---|---|---|---|---|
| 2026-05-07 11:26 | 13.20169 | 77.70958 | 3011 ft | 0 kts | 181° |
| 2026-05-07 11:31 | 13.20184 | 77.70958 | 3011 ft | 2 kts | 183° |
| 2026-05-07 11:31 | 13.20201 | 77.70959 | 3011 ft | 2 kts | 184° |
| 2026-05-07 11:32 | 13.20233 | 77.70963 | 3014 ft | 2 kts | 193° |
| 2026-05-07 11:32 | 13.20249 | 77.70968 | 3017 ft | 2 kts | 208° |
| 2026-05-07 11:32 | 13.20261 | 77.70979 | 3016 ft | 2 kts | 256° |
| 2026-05-07 11:33 | 13.20263 | 77.70988 | 3016 ft | 0 kts | 270° |
| 2026-05-07 11:35 | 13.20263 | 77.70981 | 3016 ft | 2 kts | 270° |
| 2026-05-07 11:35 | 13.20263 | 77.70957 | 3014 ft | 5 kts | 270° |
| 2026-05-07 11:36 | 13.20263 | 77.70915 | 3011 ft | 7 kts | 270° |
| 2026-05-07 11:36 | 13.20263 | 77.70854 | 3011 ft | 10 kts | 270° |
| 2026-05-07 11:36 | 13.20263 | 77.70776 | 3011 ft | 12 kts | 270° |
| 2026-05-07 11:36 | 13.20263 | 77.70683 | 3011 ft | 14 kts | 270° |
| 2026-05-07 11:37 | 13.20265 | 77.70577 | 3011 ft | 16 kts | 271° |
| 2026-05-07 11:37 | 13.20267 | 77.70456 | 3011 ft | 18 kts | 271° |
| 2026-05-07 11:37 | 13.20344 | 77.70391 | 3011 ft | 17 kts | 0° |
| 2026-05-07 11:37 | 13.20469 | 77.70392 | 3014 ft | 19 kts | 1° |
| 2026-05-07 11:38 | 13.20527 | 77.70324 | 3011 ft | 14 kts | 270° |
| 2026-05-07 11:38 | 13.20534 | 77.70217 | 3011 ft | 16 kts | 271° |
| 2026-05-07 11:38 | 13.20535 | 77.70097 | 3011 ft | 18 kts | 270° |
| 2026-05-07 11:38 | 13.20536 | 77.69966 | 3011 ft | 19 kts | 270° |
| 2026-05-07 11:39 | 13.20538 | 77.69821 | 3011 ft | 21 kts | 270° |
| 2026-05-07 11:39 | 13.20539 | 77.69668 | 3011 ft | 22 kts | 270° |
| 2026-05-07 11:39 | 13.20541 | 77.69503 | 3010 ft | 24 kts | 271° |
| 2026-05-07 11:39 | 13.20543 | 77.69327 | 3010 ft | 25 kts | 271° |
| 2026-05-07 11:40 | 13.20542 | 77.69147 | 3010 ft | 26 kts | 272° |
| 2026-05-07 11:40 | 13.20546 | 77.68960 | 3010 ft | 27 kts | 271° |
| 2026-05-07 11:40 | 13.20546 | 77.68767 | 3011 ft | 27 kts | 270° |
| 2026-05-07 11:40 | 13.20546 | 77.68722 | 3011 ft | 1 kts | 270° |
| 2026-05-07 11:41 | 13.20546 | 77.68705 | 3011 ft | 4 kts | 270° |
| 2026-05-07 11:41 | 13.20547 | 77.68670 | 3011 ft | 6 kts | 271° |
| 2026-05-07 11:41 | 13.20565 | 77.68626 | 3013 ft | 8 kts | 320° |
| 2026-05-07 11:41 | 13.20609 | 77.68616 | 3014 ft | 0 kts | 358° |
| 2026-05-07 11:42 | 13.20611 | 77.68616 | 3014 ft | 1 kts | 358° |
| 2026-05-07 11:42 | 13.20625 | 77.68615 | 3011 ft | 3 kts | 358° |
| 2026-05-07 11:43 | 13.20658 | 77.68616 | 3011 ft | 6 kts | 6° |
| 2026-05-07 11:43 | 13.20700 | 77.68640 | 3013 ft | 8 kts | 47° |
| 2026-05-07 11:43 | 13.20719 | 77.68700 | 3013 ft | 10 kts | 86° |
| 2026-05-07 11:43 | 13.20720 | 77.68791 | 3011 ft | 22 kts | 90° |
| 2026-05-07 11:44 | 13.20718 | 77.69147 | 3011 ft | 82 kts | 91° |
| 2026-05-07 11:44 | 13.20706 | 77.69930 | 3011 ft | 136 kts | 91° |
| 2026-05-07 11:44 | 13.20671 | 77.71035 | 3198 ft | 161 kts | 94° |
| 2026-05-07 11:44 | 13.20600 | 77.72197 | 3681 ft | 173 kts | 97° |
| 2026-05-07 11:45 | 13.20405 | 77.73469 | 4108 ft | 186 kts | 101° |
| 2026-05-07 11:45 | 13.20148 | 77.74800 | 4602 ft | 197 kts | 92° |
| 2026-05-07 11:45 | 13.20310 | 77.76227 | 5065 ft | 206 kts | 82° |
| 2026-05-07 11:45 | 13.20402 | 77.77758 | 5466 ft | 223 kts | 77° |
| 2026-05-07 11:46 | 13.21089 | 77.79193 | 6189 ft | 220 kts | 57° |
| 2026-05-07 11:46 | 13.22018 | 77.80381 | 7038 ft | 217 kts | 36° |
| 2026-05-07 11:46 | 13.23450 | 77.80940 | 7617 ft | 220 kts | 19° |
| 2026-05-07 11:46 | 13.24838 | 77.81523 | 8364 ft | 216 kts | 31° |
| 2026-05-07 11:47 | 13.26063 | 77.82424 | 9088 ft | 215 kts | 44° |
| 2026-05-07 11:47 | 13.27043 | 77.83582 | 9720 ft | 219 kts | 56° |
| 2026-05-07 11:47 | 13.27817 | 77.84948 | 10343 ft | 221 kts | 62° |
| 2026-05-07 11:47 | 13.28507 | 77.86384 | 10933 ft | 224 kts | 64° |
| 2026-05-07 11:48 | 13.29292 | 77.87782 | 11453 ft | 230 kts | 56° |
| 2026-05-07 11:48 | 13.30250 | 77.89119 | 12030 ft | 233 kts | 50° |
| 2026-05-07 11:48 | 13.31323 | 77.90390 | 12615 ft | 237 kts | 48° |
| 2026-05-07 11:48 | 13.32444 | 77.91628 | 13171 ft | 241 kts | 46° |
| 2026-05-07 11:49 | 13.33636 | 77.92868 | 13722 ft | 246 kts | 44° |
| 2026-05-07 11:49 | 13.34891 | 77.94095 | 14220 ft | 250 kts | 42° |
| 2026-05-07 11:49 | 13.36181 | 77.95285 | 14734 ft | 253 kts | 40° |
| 2026-05-07 11:49 | 13.37540 | 77.96466 | 15230 ft | 255 kts | 38° |
| 2026-05-07 11:50 | 13.38929 | 77.97605 | 15719 ft | 259 kts | 36° |
| 2026-05-07 11:50 | 13.40390 | 77.98735 | 16171 ft | 263 kts | 34° |
| 2026-05-07 11:50 | 13.41892 | 77.99826 | 16712 ft | 263 kts | 33° |
| 2026-05-07 11:50 | 13.43412 | 78.00865 | 17189 ft | 266 kts | 31° |
| 2026-05-07 11:51 | 13.45000 | 78.01886 | 17656 ft | 269 kts | 29° |
| 2026-05-07 11:51 | 13.46604 | 78.02854 | 18115 ft | 272 kts | 27° |
| 2026-05-07 11:51 | 13.48260 | 78.03818 | 18528 ft | 274 kts | 30° |
| 2026-05-07 11:51 | 13.49786 | 78.05045 | 18864 ft | 281 kts | 44° |
| 2026-05-07 11:52 | 13.51129 | 78.06464 | 19388 ft | 276 kts | 46° |
| 2026-05-07 11:52 | 13.52487 | 78.07857 | 19815 ft | 277 kts | 40° |
| 2026-05-07 11:52 | 13.53974 | 78.09224 | 19856 ft | 296 kts | 40° |
| 2026-05-07 11:52 | 13.55569 | 78.10675 | 19864 ft | 316 kts | 40° |
| 2026-05-07 11:53 | 13.57217 | 78.12227 | 19960 ft | 331 kts | 41° |
| 2026-05-07 11:53 | 13.58959 | 78.13865 | 20097 ft | 346 kts | 42° |
| 2026-05-07 11:53 | 13.60728 | 78.15592 | 20209 ft | 361 kts | 43° |
| 2026-05-07 11:53 | 13.62548 | 78.17441 | 20347 ft | 374 kts | 44° |
| 2026-05-07 11:54 | 13.64428 | 78.19400 | 20461 ft | 388 kts | 45° |
| 2026-05-07 11:54 | 13.66327 | 78.21399 | 20575 ft | 400 kts | 45° |
| 2026-05-07 11:54 | 13.68286 | 78.23470 | 20762 ft | 410 kts | 45° |
| 2026-05-07 11:54 | 13.70293 | 78.25592 | 21176 ft | 412 kts | 45° |
| 2026-05-07 11:55 | 13.72275 | 78.27687 | 21648 ft | 413 kts | 45° |
| 2026-05-07 11:55 | 13.74296 | 78.29823 | 22076 ft | 415 kts | 45° |
| 2026-05-07 11:55 | 13.76301 | 78.31939 | 22498 ft | 418 kts | 45° |
| 2026-05-07 11:55 | 13.78344 | 78.34098 | 22940 ft | 419 kts | 45° |
| 2026-05-07 11:56 | 13.80396 | 78.36266 | 23335 ft | 422 kts | 45° |
| 2026-05-07 11:56 | 13.82426 | 78.38412 | 23691 ft | 424 kts | 45° |
| 2026-05-07 11:56 | 13.84508 | 78.40612 | 24003 ft | 426 kts | 45° |
| 2026-05-07 11:56 | 13.86560 | 78.42782 | 24321 ft | 429 kts | 45° |
| 2026-05-07 11:57 | 13.88652 | 78.44994 | 24655 ft | 431 kts | 45° |
| 2026-05-07 11:57 | 13.90757 | 78.47222 | 24956 ft | 434 kts | 45° |
| 2026-05-07 11:57 | 13.92855 | 78.49442 | 25282 ft | 436 kts | 45° |
| 2026-05-07 11:57 | 13.94974 | 78.51686 | 25537 ft | 439 kts | 45° |
| 2026-05-07 11:58 | 13.97103 | 78.53942 | 25769 ft | 443 kts | 45° |
| 2026-05-07 11:58 | 13.99263 | 78.56229 | 26106 ft | 444 kts | 45° |
| 2026-05-07 11:58 | 14.01431 | 78.58526 | 26398 ft | 446 kts | 45° |
| 2026-05-07 11:58 | 14.03611 | 78.60774 | 26675 ft | 448 kts | 41° |
| 2026-05-07 11:59 | 14.06020 | 78.62834 | 26956 ft | 450 kts | 38° |
| 2026-05-07 11:59 | 14.08462 | 78.64838 | 27226 ft | 452 kts | 38° |
| 2026-05-07 11:59 | 14.10090 | 78.66180 | 27408 ft | 453 kts | 38° |
| 2026-05-07 11:59 | 14.12566 | 78.68224 | 27652 ft | 456 kts | 38° |
| 2026-05-07 12:00 | 14.15854 | 78.70941 | 27978 ft | 458 kts | 38° |
| 2026-05-07 12:00 | 14.17521 | 78.72318 | 28133 ft | 460 kts | 38° |
| 2026-05-07 12:00 | 14.20024 | 78.74387 | 28388 ft | 462 kts | 38° |
| 2026-05-07 12:00 | 14.22546 | 78.76473 | 28641 ft | 464 kts | 38° |
| 2026-05-07 12:01 | 14.25047 | 78.78542 | 28861 ft | 466 kts | 38° |
| 2026-05-07 12:01 | 14.27582 | 78.80639 | 29130 ft | 467 kts | 38° |
| 2026-05-07 12:01 | 14.30136 | 78.82753 | 29331 ft | 470 kts | 38° |
| 2026-05-07 12:01 | 14.32663 | 78.84916 | 29592 ft | 471 kts | 39° |
| 2026-05-07 12:02 | 14.35136 | 78.87096 | 29765 ft | 474 kts | 40° |
| 2026-05-07 12:02 | 14.37660 | 78.89330 | 30038 ft | 475 kts | 40° |
| 2026-05-07 12:02 | 14.40180 | 78.91557 | 30200 ft | 478 kts | 40° |
| 2026-05-07 12:02 | 14.42690 | 78.93765 | 30442 ft | 478 kts | 40° |
| 2026-05-07 12:03 | 14.45235 | 78.96000 | 30614 ft | 482 kts | 40° |
| 2026-05-07 12:03 | 14.47770 | 78.98224 | 30848 ft | 482 kts | 40° |
| 2026-05-07 12:03 | 14.50326 | 79.00466 | 31096 ft | 483 kts | 40° |
| 2026-05-07 12:03 | 14.52903 | 79.02727 | 31367 ft | 483 kts | 40° |
| 2026-05-07 12:04 | 14.55479 | 79.04988 | 31673 ft | 483 kts | 40° |
| 2026-05-07 12:04 | 14.58024 | 79.07223 | 31895 ft | 483 kts | 40° |
| 2026-05-07 12:04 | 14.60590 | 79.09476 | 32217 ft | 482 kts | 40° |
| 2026-05-07 12:04 | 14.63142 | 79.11718 | 32404 ft | 484 kts | 40° |
| 2026-05-07 12:05 | 14.65689 | 79.13956 | 32711 ft | 483 kts | 40° |
| 2026-05-07 12:05 | 14.68256 | 79.16213 | 32907 ft | 484 kts | 40° |
| 2026-05-07 12:05 | 14.70807 | 79.18456 | 33202 ft | 483 kts | 40° |
| 2026-05-07 12:05 | 14.73354 | 79.20697 | 33424 ft | 483 kts | 40° |
| 2026-05-07 12:06 | 14.75933 | 79.22966 | 33723 ft | 482 kts | 40° |
| 2026-05-07 12:06 | 14.78466 | 79.25196 | 33901 ft | 482 kts | 40° |
| 2026-05-07 12:06 | 14.81032 | 79.27455 | 34150 ft | 481 kts | 40° |
| 2026-05-07 12:06 | 14.83550 | 79.29673 | 34335 ft | 481 kts | 40° |
| 2026-05-07 12:07 | 14.86095 | 79.31916 | 34595 ft | 479 kts | 40° |
| 2026-05-07 12:07 | 14.88643 | 79.34161 | 34775 ft | 479 kts | 40° |
| 2026-05-07 12:07 | 14.91182 | 79.36399 | 35012 ft | 477 kts | 40° |
| 2026-05-07 12:07 | 14.93684 | 79.38606 | 35200 ft | 477 kts | 40° |
| 2026-05-07 12:08 | 14.96187 | 79.40873 | 35381 ft | 477 kts | 44° |
| 2026-05-07 12:08 | 14.98460 | 79.43371 | 35603 ft | 476 kts | 50° |
| 2026-05-07 12:08 | 15.00476 | 79.46090 | 35784 ft | 475 kts | 54° |
| 2026-05-07 12:08 | 15.02419 | 79.48806 | 36018 ft | 474 kts | 53° |
| 2026-05-07 12:09 | 15.04401 | 79.51558 | 36183 ft | 474 kts | 53° |
| 2026-05-07 12:09 | 15.06352 | 79.54262 | 36438 ft | 472 kts | 53° |
| 2026-05-07 12:09 | 15.08323 | 79.56995 | 36583 ft | 472 kts | 53° |
| 2026-05-07 12:09 | 15.10291 | 79.59726 | 36757 ft | 472 kts | 53° |
| 2026-05-07 12:10 | 15.12238 | 79.62429 | 36773 ft | 473 kts | 53° |
| 2026-05-07 12:10 | 15.16171 | 79.67897 | 36774 ft | 472 kts | 53° |
| 2026-05-07 12:11 | 15.20074 | 79.73330 | 36774 ft | 472 kts | 53° |
| 2026-05-07 12:11 | 15.23978 | 79.78768 | 36772 ft | 471 kts | 53° |
| 2026-05-07 12:12 | 15.27894 | 79.84227 | 36781 ft | 471 kts | 53° |
| 2026-05-07 12:12 | 15.31787 | 79.89657 | 36781 ft | 472 kts | 53° |
| 2026-05-07 12:13 | 15.35695 | 79.95111 | 36774 ft | 471 kts | 53° |
| 2026-05-07 12:13 | 15.39612 | 80.00583 | 36776 ft | 471 kts | 53° |
| 2026-05-07 12:14 | 15.43527 | 80.06056 | 36781 ft | 473 kts | 53° |
| 2026-05-07 12:14 | 15.47437 | 80.11525 | 36776 ft | 473 kts | 53° |
| 2026-05-07 12:15 | 15.51359 | 80.17015 | 36775 ft | 472 kts | 53° |
| 2026-05-07 12:15 | 15.55252 | 80.22467 | 36781 ft | 472 kts | 53° |
| 2026-05-07 12:16 | 15.59167 | 80.27956 | 36782 ft | 472 kts | 53° |
| 2026-05-07 12:16 | 15.63047 | 80.33399 | 36782 ft | 472 kts | 53° |
| 2026-05-07 12:17 | 15.66943 | 80.38868 | 36778 ft | 472 kts | 53° |
| 2026-05-07 12:17 | 15.70846 | 80.44352 | 36784 ft | 471 kts | 53° |
| 2026-05-07 12:18 | 15.74749 | 80.49839 | 36787 ft | 472 kts | 53° |
| 2026-05-07 12:18 | 15.78642 | 80.55316 | 36788 ft | 472 kts | 53° |
| 2026-05-07 12:19 | 15.82542 | 80.60807 | 36785 ft | 473 kts | 53° |
| 2026-05-07 12:19 | 15.86440 | 80.66300 | 36781 ft | 473 kts | 53° |
| 2026-05-07 12:20 | 15.90357 | 80.71822 | 36785 ft | 473 kts | 53° |
| 2026-05-07 12:20 | 15.94249 | 80.77315 | 36787 ft | 473 kts | 53° |
| 2026-05-07 12:21 | 15.98139 | 80.82808 | 36786 ft | 473 kts | 53° |
| 2026-05-07 12:21 | 16.02030 | 80.88307 | 36786 ft | 473 kts | 53° |
| 2026-05-07 12:22 | 16.05935 | 80.93829 | 36784 ft | 474 kts | 54° |
| 2026-05-07 12:22 | 16.09827 | 80.99337 | 36785 ft | 474 kts | 54° |
| 2026-05-07 12:23 | 16.13728 | 81.04864 | 36787 ft | 474 kts | 54° |
| 2026-05-07 12:23 | 16.17624 | 81.10386 | 36785 ft | 475 kts | 53° |
| 2026-05-07 12:24 | 16.21525 | 81.15920 | 36785 ft | 475 kts | 53° |
| 2026-05-07 12:24 | 16.25446 | 81.21486 | 36786 ft | 475 kts | 53° |
| 2026-05-07 12:25 | 16.29334 | 81.27010 | 36792 ft | 475 kts | 53° |
| 2026-05-07 12:25 | 16.33244 | 81.32569 | 36786 ft | 476 kts | 54° |
| 2026-05-07 12:26 | 16.37152 | 81.38129 | 36784 ft | 476 kts | 54° |
| 2026-05-07 12:26 | 16.41064 | 81.43701 | 36788 ft | 477 kts | 54° |
| 2026-05-07 12:27 | 16.44975 | 81.49275 | 36798 ft | 477 kts | 54° |
| 2026-05-07 12:27 | 16.48879 | 81.54843 | 36790 ft | 477 kts | 54° |
| 2026-05-07 12:28 | 16.52786 | 81.60420 | 36793 ft | 477 kts | 54° |
| 2026-05-07 12:28 | 16.56697 | 81.66007 | 36787 ft | 478 kts | 54° |
| 2026-05-07 12:29 | 16.60607 | 81.71595 | 36781 ft | 479 kts | 54° |
| 2026-05-07 12:29 | 16.64399 | 81.77021 | 36783 ft | 479 kts | 54° |
| 2026-05-07 12:30 | 16.68305 | 81.82614 | 36789 ft | 479 kts | 54° |
| 2026-05-07 12:30 | 16.72222 | 81.88227 | 36791 ft | 480 kts | 54° |
| 2026-05-07 12:31 | 16.76149 | 81.93858 | 36791 ft | 480 kts | 54° |
| 2026-05-07 12:31 | 16.80091 | 81.99516 | 36792 ft | 480 kts | 54° |
| 2026-05-07 12:32 | 16.84010 | 82.05146 | 36799 ft | 480 kts | 54° |
| 2026-05-07 12:32 | 16.87923 | 82.10772 | 36796 ft | 480 kts | 54° |
| 2026-05-07 12:33 | 16.93796 | 82.19224 | 36798 ft | 481 kts | 54° |
| 2026-05-07 12:33 | 16.97725 | 82.24882 | 36798 ft | 481 kts | 54° |
| 2026-05-07 12:34 | 17.01648 | 82.30538 | 36801 ft | 481 kts | 54° |
| 2026-05-07 12:34 | 17.05565 | 82.36190 | 36801 ft | 481 kts | 54° |
| 2026-05-07 12:35 | 17.09482 | 82.41845 | 36796 ft | 481 kts | 54° |
| 2026-05-07 12:35 | 17.13409 | 82.47519 | 36797 ft | 481 kts | 54° |
| 2026-05-07 12:36 | 17.17327 | 82.53188 | 36801 ft | 481 kts | 54° |
| 2026-05-07 12:36 | 17.21248 | 82.58863 | 36799 ft | 482 kts | 54° |
| 2026-05-07 12:37 | 17.25166 | 82.64541 | 36801 ft | 482 kts | 54° |
| 2026-05-07 12:37 | 17.29082 | 82.70220 | 36794 ft | 482 kts | 54° |
| 2026-05-07 12:38 | 17.32996 | 82.75899 | 36796 ft | 483 kts | 54° |
| 2026-05-07 12:38 | 17.36931 | 82.81613 | 36789 ft | 483 kts | 54° |
| 2026-05-07 12:39 | 17.40849 | 82.87309 | 36788 ft | 484 kts | 54° |
| 2026-05-07 12:39 | 17.44801 | 82.93058 | 36792 ft | 484 kts | 54° |
| 2026-05-07 12:40 | 17.48721 | 82.98767 | 36800 ft | 485 kts | 54° |
| 2026-05-07 12:40 | 17.52652 | 83.04495 | 36799 ft | 485 kts | 54° |
| 2026-05-07 12:41 | 17.56611 | 83.10270 | 36799 ft | 486 kts | 54° |
| 2026-05-07 12:41 | 17.60547 | 83.16013 | 36810 ft | 486 kts | 54° |
| 2026-05-07 12:42 | 17.64479 | 83.21755 | 36799 ft | 487 kts | 54° |
| 2026-05-07 12:42 | 17.68451 | 83.27520 | 36804 ft | 487 kts | 53° |
| 2026-05-07 12:43 | 17.72575 | 83.33184 | 36804 ft | 488 kts | 52° |
| 2026-05-07 12:43 | 17.76705 | 83.38842 | 36798 ft | 495 kts | 52° |
| 2026-05-07 12:44 | 17.80893 | 83.44621 | 36798 ft | 503 kts | 52° |
| 2026-05-07 12:44 | 17.85125 | 83.50476 | 36801 ft | 508 kts | 52° |
| 2026-05-07 12:45 | 17.86525 | 83.52415 | 36802 ft | 510 kts | 52° |
| 2026-05-07 12:46 | 17.86997 | 83.53068 | 36796 ft | 510 kts | 52° |
| 2026-05-07 12:46 | 17.91300 | 83.59030 | 36802 ft | 512 kts | 53° |
| 2026-05-07 12:47 | 17.95519 | 83.64880 | 36813 ft | 511 kts | 53° |
| 2026-05-07 12:47 | 17.99797 | 83.70818 | 36817 ft | 512 kts | 52° |
| 2026-05-07 12:48 | 18.04116 | 83.76818 | 36812 ft | 514 kts | 52° |
| 2026-05-07 12:48 | 18.08432 | 83.82818 | 36821 ft | 514 kts | 52° |
| 2026-05-07 12:49 | 18.12724 | 83.88790 | 36820 ft | 514 kts | 52° |
| 2026-05-07 12:49 | 18.17032 | 83.94791 | 36821 ft | 515 kts | 52° |
| 2026-05-07 12:50 | 18.21072 | 84.00423 | 36823 ft | 514 kts | 52° |
| 2026-05-07 12:50 | 18.25369 | 84.06421 | 36819 ft | 514 kts | 52° |
| 2026-05-07 12:51 | 18.29670 | 84.12426 | 36822 ft | 514 kts | 52° |
| 2026-05-07 12:51 | 18.34012 | 84.18443 | 36821 ft | 514 kts | 52° |
| 2026-05-07 12:52 | 18.38344 | 84.24440 | 36823 ft | 516 kts | 52° |
| 2026-05-07 12:52 | 18.42677 | 84.30448 | 36822 ft | 516 kts | 52° |
| 2026-05-07 12:53 | 18.47013 | 84.36467 | 36824 ft | 516 kts | 52° |
| 2026-05-07 12:53 | 18.51334 | 84.42474 | 36823 ft | 516 kts | 52° |
| 2026-05-07 12:54 | 18.55492 | 84.48259 | 36826 ft | 516 kts | 52° |
| 2026-05-07 12:54 | 18.59806 | 84.54267 | 36826 ft | 516 kts | 52° |
| 2026-05-07 12:55 | 18.64107 | 84.60262 | 36825 ft | 516 kts | 52° |
| 2026-05-07 12:55 | 18.68423 | 84.66283 | 36826 ft | 516 kts | 52° |
| 2026-05-07 12:56 | 18.72039 | 84.71333 | 36826 ft | 518 kts | 52° |
| 2026-05-07 12:56 | 18.76388 | 84.77412 | 36826 ft | 518 kts | 52° |
| 2026-05-07 12:57 | 18.80709 | 84.83457 | 36826 ft | 518 kts | 52° |
| 2026-05-07 12:57 | 18.85062 | 84.89540 | 36826 ft | 518 kts | 52° |
| 2026-05-07 12:58 | 18.89428 | 84.95551 | 36829 ft | 518 kts | 52° |
| 2026-05-07 12:58 | 18.93802 | 85.01571 | 36829 ft | 518 kts | 52° |
| 2026-05-07 12:59 | 18.98038 | 85.07417 | 36822 ft | 519 kts | 52° |
| 2026-05-07 12:59 | 19.02398 | 85.13444 | 36829 ft | 518 kts | 52° |
| 2026-05-07 13:00 | 19.06792 | 85.19527 | 36839 ft | 520 kts | 52° |
| 2026-05-07 13:00 | 19.11184 | 85.25601 | 36831 ft | 521 kts | 50° |
| 2026-05-07 13:01 | 19.16003 | 85.31161 | 36827 ft | 519 kts | 45° |
| 2026-05-07 13:01 | 19.20979 | 85.36730 | 36826 ft | 519 kts | 45° |
| 2026-05-07 13:02 | 19.25916 | 85.42268 | 36826 ft | 519 kts | 45° |
| 2026-05-07 13:02 | 19.30861 | 85.47817 | 36826 ft | 520 kts | 45° |
| 2026-05-07 13:03 | 19.35812 | 85.53373 | 36818 ft | 520 kts | 45° |
| 2026-05-07 13:03 | 19.40756 | 85.58927 | 36835 ft | 520 kts | 45° |
| 2026-05-07 13:04 | 19.45747 | 85.64541 | 36820 ft | 521 kts | 45° |
| 2026-05-07 13:04 | 19.50700 | 85.70115 | 36815 ft | 521 kts | 45° |
| 2026-05-07 13:05 | 19.55653 | 85.75694 | 36818 ft | 521 kts | 45° |
| 2026-05-07 13:05 | 19.60610 | 85.81285 | 36817 ft | 521 kts | 45° |
| 2026-05-07 13:06 | 19.65567 | 85.86880 | 36815 ft | 521 kts | 45° |
| 2026-05-07 13:06 | 19.70533 | 85.92492 | 36818 ft | 521 kts | 45° |
| 2026-05-07 13:07 | 19.75490 | 85.98098 | 36828 ft | 521 kts | 45° |
| 2026-05-07 13:07 | 19.80451 | 86.03716 | 36817 ft | 521 kts | 45° |
| 2026-05-07 13:08 | 19.85403 | 86.09327 | 36817 ft | 521 kts | 45° |
| 2026-05-07 13:08 | 19.90337 | 86.14923 | 36810 ft | 521 kts | 45° |
| 2026-05-07 13:09 | 19.95255 | 86.20624 | 36819 ft | 522 kts | 46° |
| 2026-05-07 13:09 | 20.00077 | 86.26334 | 36819 ft | 522 kts | 46° |
| 2026-05-07 13:10 | 20.04943 | 86.32079 | 36810 ft | 522 kts | 46° |
| 2026-05-07 13:10 | 20.09879 | 86.37743 | 36818 ft | 522 kts | 44° |
| 2026-05-07 13:11 | 20.14865 | 86.43364 | 36815 ft | 522 kts | 44° |
| 2026-05-07 13:11 | 20.19837 | 86.49000 | 36812 ft | 522 kts | 45° |
| 2026-05-07 13:12 | 20.24799 | 86.54646 | 36820 ft | 522 kts | 45° |
| 2026-05-07 13:12 | 20.29730 | 86.60262 | 36820 ft | 524 kts | 45° |
| 2026-05-07 13:13 | 20.34704 | 86.65933 | 36823 ft | 523 kts | 45° |
| 2026-05-07 13:13 | 20.39671 | 86.71603 | 36823 ft | 523 kts | 45° |
| 2026-05-07 13:14 | 20.44637 | 86.77277 | 36837 ft | 523 kts | 45° |
| 2026-05-07 13:14 | 20.49589 | 86.82940 | 36823 ft | 523 kts | 45° |
| 2026-05-07 13:15 | 20.54546 | 86.88614 | 36829 ft | 523 kts | 45° |
| 2026-05-07 13:15 | 20.59481 | 86.94270 | 36823 ft | 523 kts | 45° |
| 2026-05-07 13:16 | 20.64410 | 86.99924 | 36833 ft | 525 kts | 45° |
| 2026-05-07 13:16 | 20.66855 | 87.02583 | 36801 ft | 522 kts | 33° |
| 2026-05-07 13:16 | 20.67542 | 87.03236 | 36789 ft | 520 kts | 30° |
| 2026-05-07 13:17 | 20.70383 | 87.05509 | 36674 ft | 517 kts | 22° |
| 2026-05-07 13:17 | 20.73397 | 87.07558 | 36954 ft | 503 kts | 22° |
| 2026-05-07 13:17 | 20.76346 | 87.09533 | 37169 ft | 500 kts | 21° |
| 2026-05-07 13:18 | 20.78277 | 87.10877 | 36916 ft | 501 kts | 26° |
| 2026-05-07 13:18 | 20.78609 | 87.11134 | 36880 ft | 501 kts | 26° |
| 2026-05-07 13:18 | 20.78949 | 87.11400 | 36829 ft | 501 kts | 25° |
| 2026-05-07 13:19 | 20.81620 | 87.13740 | 36725 ft | 503 kts | 35° |
| 2026-05-07 13:19 | 20.83789 | 87.16694 | 36675 ft | 505 kts | 56° |
| 2026-05-07 13:20 | 20.85103 | 87.20104 | 36972 ft | 494 kts | 65° |
| 2026-05-07 13:20 | 20.86135 | 87.23629 | 36949 ft | 493 kts | 59° |
| 2026-05-07 13:20 | 20.87836 | 87.26744 | 36894 ft | 489 kts | 41° |
| 2026-05-07 13:20 | 20.90032 | 87.29499 | 36939 ft | 484 kts | 35° |
| 2026-05-07 13:21 | 20.94806 | 87.34398 | 36739 ft | 483 kts | 29° |
| 2026-05-07 13:21 | 20.97331 | 87.36722 | 36517 ft | 487 kts | 30° |
| 2026-05-07 13:21 | 20.99880 | 87.39128 | 36646 ft | 481 kts | 31° |
| 2026-05-07 13:22 | 21.04822 | 87.43894 | 36820 ft | 473 kts | 31° |
| 2026-05-07 13:22 | 21.08966 | 87.49315 | 36844 ft | 470 kts | 46° |
| 2026-05-07 13:23 | 21.12472 | 87.55122 | 36821 ft | 463 kts | 46° |
| 2026-05-07 13:23 | 21.14239 | 87.58009 | 36627 ft | 462 kts | 42° |
| 2026-05-07 13:23 | 21.16159 | 87.60743 | 36600 ft | 456 kts | 36° |
| 2026-05-07 13:24 | 21.20440 | 87.65548 | 36603 ft | 439 kts | 28° |
| 2026-05-07 13:24 | 21.24903 | 87.69905 | 36371 ft | 426 kts | 23° |
| 2026-05-07 13:25 | 21.27153 | 87.71909 | 36201 ft | 421 kts | 21° |
| 2026-05-07 13:25 | 21.29449 | 87.73859 | 35602 ft | 428 kts | 21° |
| 2026-05-07 13:25 | 21.31752 | 87.75983 | 35040 ft | 440 kts | 31° |
| 2026-05-07 13:25 | 21.33914 | 87.78285 | 34865 ft | 437 kts | 31° |
| 2026-05-07 13:26 | 21.35977 | 87.80605 | 35120 ft | 421 kts | 31° |
| 2026-05-07 13:26 | 21.37962 | 87.82874 | 35110 ft | 410 kts | 28° |
| 2026-05-07 13:26 | 21.39931 | 87.85073 | 34546 ft | 417 kts | 29° |
| 2026-05-07 13:26 | 21.41902 | 87.87476 | 33709 ft | 436 kts | 41° |
| 2026-05-07 13:27 | 21.45607 | 87.92393 | 33686 ft | 415 kts | 24° |
| 2026-05-07 13:27 | 21.47702 | 87.94492 | 33340 ft | 420 kts | 32° |
| 2026-05-07 13:27 | 21.49705 | 87.96756 | 33301 ft | 410 kts | 23° |
| 2026-05-07 13:28 | 21.51761 | 87.98871 | 32737 ft | 422 kts | 30° |
| 2026-05-07 13:28 | 21.53881 | 88.01124 | 32211 ft | 431 kts | 27° |
| 2026-05-07 13:28 | 21.56164 | 88.03206 | 31957 ft | 435 kts | 23° |
| 2026-05-07 13:28 | 21.58589 | 88.05143 | 31980 ft | 430 kts | 19° |
| 2026-05-07 13:29 | 21.61079 | 88.06889 | 32082 ft | 423 kts | 14° |
| 2026-05-07 13:29 | 21.63640 | 88.08438 | 32095 ft | 418 kts | 9° |
| 2026-05-07 13:29 | 21.66202 | 88.09818 | 31955 ft | 419 kts | 9° |
| 2026-05-07 13:29 | 21.67408 | 88.10467 | 31890 ft | 420 kts | 10° |
| 2026-05-07 13:30 | 21.71024 | 88.12262 | 31818 ft | 417 kts | 6° |
| 2026-05-07 13:30 | 21.76400 | 88.14487 | 31772 ft | 411 kts | 0° |
| 2026-05-07 13:31 | 21.81830 | 88.16262 | 31722 ft | 407 kts | 358° |
| 2026-05-07 13:31 | 21.84578 | 88.17164 | 31544 ft | 411 kts | 359° |
| 2026-05-07 13:31 | 21.87242 | 88.18233 | 31614 ft | 409 kts | 7° |
| 2026-05-07 13:32 | 21.89781 | 88.19618 | 31779 ft | 404 kts | 9° |
| 2026-05-07 13:32 | 21.92228 | 88.21072 | 31753 ft | 396 kts | 4° |
| 2026-05-07 13:32 | 21.94718 | 88.22190 | 31672 ft | 385 kts | 356° |
| 2026-05-07 13:32 | 21.97273 | 88.23066 | 31401 ft | 382 kts | 352° |
| 2026-05-07 13:33 | 21.99832 | 88.23257 | 30691 ft | 368 kts | 325° |
| 2026-05-07 13:33 | 22.02533 | 88.22983 | 29542 ft | 416 kts | 350° |
| 2026-05-07 13:33 | 22.05373 | 88.23872 | 29815 ft | 428 kts | 19° |
| 2026-05-07 13:33 | 22.07980 | 88.25140 | 31042 ft | 394 kts | 15° |
| 2026-05-07 13:34 | 22.10455 | 88.26159 | 32115 ft | 365 kts | 10° |
| 2026-05-07 13:34 | 22.15277 | 88.27487 | 32425 ft | 363 kts | 1° |
| 2026-05-07 13:34 | 22.17784 | 88.28003 | 32303 ft | 375 kts | 3° |
| 2026-05-07 13:35 | 22.20353 | 88.28662 | 32348 ft | 384 kts | 8° |
| 2026-05-07 13:35 | 22.22907 | 88.29533 | 32575 ft | 387 kts | 13° |
| 2026-05-07 13:35 | 22.25412 | 88.30607 | 32850 ft | 388 kts | 17° |
| 2026-05-07 13:35 | 22.27899 | 88.31830 | 33092 ft | 389 kts | 18° |
| 2026-05-07 13:36 | 22.30328 | 88.33108 | 33253 ft | 391 kts | 20° |
| 2026-05-07 13:36 | 22.32725 | 88.34459 | 33372 ft | 394 kts | 21° |
| 2026-05-07 13:36 | 22.35183 | 88.35773 | 33487 ft | 394 kts | 18° |
| 2026-05-07 13:36 | 22.37723 | 88.36978 | 33638 ft | 393 kts | 15° |
| 2026-05-07 13:37 | 22.40256 | 88.38033 | 33792 ft | 392 kts | 12° |
| 2026-05-07 13:37 | 22.42820 | 88.38959 | 33931 ft | 391 kts | 9° |
| 2026-05-07 13:37 | 22.45450 | 88.39768 | 34095 ft | 389 kts | 6° |
| 2026-05-07 13:37 | 22.48018 | 88.40363 | 34461 ft | 370 kts | 358° |
| 2026-05-07 13:38 | 22.50532 | 88.40699 | 34795 ft | 363 kts | 355° |
| 2026-05-07 13:38 | 22.53063 | 88.40866 | 34693 ft | 367 kts | 352° |
| 2026-05-07 13:38 | 22.55660 | 88.41148 | 34698 ft | 379 kts | 360° |
| 2026-05-07 13:39 | 22.60865 | 88.42491 | 34645 ft | 402 kts | 15° |
| 2026-05-07 13:39 | 22.63447 | 88.43704 | 34756 ft | 405 kts | 18° |
| 2026-05-07 13:39 | 22.65983 | 88.45078 | 34963 ft | 407 kts | 22° |
| 2026-05-07 13:39 | 22.68345 | 88.46786 | 35152 ft | 412 kts | 37° |
| 2026-05-07 13:40 | 22.70213 | 88.49252 | 34752 ft | 436 kts | 64° |
| 2026-05-07 13:40 | 22.71222 | 88.52409 | 34386 ft | 450 kts | 78° |
| 2026-05-07 13:40 | 22.71762 | 88.55694 | 34689 ft | 442 kts | 87° |
| 2026-05-07 13:40 | 22.71913 | 88.58987 | 35205 ft | 428 kts | 95° |
| 2026-05-07 13:41 | 22.71790 | 88.62155 | 35574 ft | 420 kts | 93° |
| 2026-05-07 13:41 | 22.71920 | 88.65348 | 35714 ft | 422 kts | 84° |
| 2026-05-07 13:41 | 22.72565 | 88.68440 | 35707 ft | 427 kts | 74° |
| 2026-05-07 13:42 | 22.74232 | 88.74644 | 35792 ft | 432 kts | 76° |
| 2026-05-07 13:42 | 22.74963 | 88.77798 | 35904 ft | 432 kts | 78° |
| 2026-05-07 13:42 | 22.75645 | 88.80992 | 36030 ft | 432 kts | 79° |
| 2026-05-07 13:42 | 22.76261 | 88.84145 | 36167 ft | 432 kts | 80° |
| 2026-05-07 13:43 | 22.76968 | 88.87306 | 36152 ft | 438 kts | 66° |
| 2026-05-07 13:43 | 22.78188 | 88.90401 | 35934 ft | 447 kts | 71° |
| 2026-05-07 13:43 | 22.79118 | 88.93625 | 36045 ft | 447 kts | 73° |
| 2026-05-07 13:43 | 22.80033 | 88.96808 | 36381 ft | 441 kts | 73° |
| 2026-05-07 13:44 | 22.80898 | 88.99962 | 36673 ft | 436 kts | 75° |
| 2026-05-07 13:44 | 22.81721 | 89.03104 | 36830 ft | 435 kts | 74° |
| 2026-05-07 13:44 | 22.82588 | 89.06276 | 36874 ft | 438 kts | 73° |
| 2026-05-07 13:45 | 22.84085 | 89.11466 | 36922 ft | 442 kts | 72° |
| 2026-05-07 13:47 | 22.84555 | 89.13029 | 36952 ft | 443 kts | 72° |
| 2026-05-07 13:47 | 22.85541 | 89.16215 | 37059 ft | 443 kts | 71° |
| 2026-05-07 13:48 | 22.86551 | 89.19363 | 37192 ft | 443 kts | 70° |
| 2026-05-07 13:48 | 22.87595 | 89.22503 | 37316 ft | 443 kts | 69° |
| 2026-05-07 13:48 | 22.88667 | 89.25618 | 37288 ft | 447 kts | 69° |
| 2026-05-07 13:49 | 22.90922 | 89.31951 | 37554 ft | 445 kts | 71° |
| 2026-05-07 13:49 | 22.91965 | 89.35202 | 36953 ft | 467 kts | 71° |
| 2026-05-07 13:49 | 22.93003 | 89.38636 | 36439 ft | 484 kts | 72° |
| 2026-05-07 13:49 | 22.94041 | 89.42037 | 36916 ft | 476 kts | 71° |
| 2026-05-07 13:50 | 22.95012 | 89.45502 | 36875 ft | 482 kts | 78° |
| 2026-05-07 13:50 | 22.96435 | 89.52691 | 36847 ft | 493 kts | 77° |
| 2026-05-07 13:51 | 22.98267 | 89.59945 | 36845 ft | 503 kts | 73° |
| 2026-05-07 13:51 | 23.00349 | 89.67240 | 36839 ft | 511 kts | 73° |
| 2026-05-07 13:51 | 23.01410 | 89.70903 | 36602 ft | 509 kts | 73° |
| 2026-05-07 13:52 | 23.02480 | 89.74595 | 36025 ft | 511 kts | 73° |
| 2026-05-07 13:52 | 23.03542 | 89.78274 | 35221 ft | 516 kts | 73° |
| 2026-05-07 13:52 | 23.04615 | 89.82001 | 34299 ft | 524 kts | 73° |
| 2026-05-07 13:52 | 23.05721 | 89.85847 | 33231 ft | 533 kts | 73° |
| 2026-05-07 13:53 | 23.06830 | 89.89710 | 32134 ft | 541 kts | 73° |
| 2026-05-07 13:53 | 23.07957 | 89.93636 | 31047 ft | 548 kts | 73° |
| 2026-05-07 13:53 | 23.09082 | 89.97562 | 31177 ft | 553 kts | 73° |
| 2026-05-07 13:53 | 23.09845 | 90.00238 | 29361 ft | 541 kts | 73° |
| 2026-05-07 13:54 | 23.10693 | 90.03235 | 28720 ft | 541 kts | 74° |
| 2026-05-07 13:54 | 23.11769 | 90.07098 | 28169 ft | 533 kts | 75° |
| 2026-05-07 13:55 | 23.12837 | 90.10966 | 27402 ft | 530 kts | 75° |
| 2026-05-07 13:55 | 23.13898 | 90.14786 | 26665 ft | 527 kts | 74° |
| 2026-05-07 13:55 | 23.14950 | 90.18561 | 26104 ft | 520 kts | 74° |
| 2026-05-07 13:55 | 23.15999 | 90.22324 | 25546 ft | 513 kts | 74° |
| 2026-05-07 13:56 | 23.17031 | 90.26032 | 24984 ft | 506 kts | 74° |
| 2026-05-07 13:56 | 23.18029 | 90.29622 | 24457 ft | 500 kts | 74° |
| 2026-05-07 13:56 | 23.19027 | 90.33215 | 23929 ft | 493 kts | 74° |
| 2026-05-07 13:56 | 23.20006 | 90.36745 | 23405 ft | 487 kts | 74° |
| 2026-05-07 13:57 | 23.20975 | 90.40242 | 22677 ft | 482 kts | 74° |
| 2026-05-07 13:57 | 23.21947 | 90.43753 | 22014 ft | 478 kts | 74° |
| 2026-05-07 13:57 | 23.22908 | 90.47188 | 21410 ft | 472 kts | 73° |
| 2026-05-07 13:57 | 23.23878 | 90.50561 | 20812 ft | 466 kts | 73° |
| 2026-05-07 13:58 | 23.24843 | 90.53898 | 20218 ft | 461 kts | 73° |
| 2026-05-07 13:58 | 23.25800 | 90.57211 | 19634 ft | 456 kts | 73° |
| 2026-05-07 13:58 | 23.26735 | 90.60463 | 19069 ft | 451 kts | 73° |
| 2026-05-07 13:58 | 23.27663 | 90.63698 | 18493 ft | 446 kts | 73° |
| 2026-05-07 13:59 | 23.28586 | 90.66926 | 17901 ft | 441 kts | 73° |
| 2026-05-07 13:59 | 23.29491 | 90.70091 | 17291 ft | 436 kts | 73° |
| 2026-05-07 13:59 | 23.30380 | 90.73207 | 16681 ft | 431 kts | 73° |
| 2026-05-07 13:59 | 23.31256 | 90.76282 | 16097 ft | 426 kts | 73° |
| 2026-05-07 14:00 | 23.32135 | 90.79365 | 15489 ft | 421 kts | 72° |
| 2026-05-07 14:00 | 23.32993 | 90.82378 | 14920 ft | 416 kts | 72° |
| 2026-05-07 14:00 | 23.33841 | 90.85357 | 14369 ft | 411 kts | 72° |
| 2026-05-07 14:00 | 23.34687 | 90.88339 | 13821 ft | 407 kts | 72° |
| 2026-05-07 14:01 | 23.35516 | 90.91271 | 13250 ft | 402 kts | 72° |
| 2026-05-07 14:01 | 23.36331 | 90.94160 | 12665 ft | 398 kts | 72° |
| 2026-05-07 14:01 | 23.37131 | 90.96994 | 12103 ft | 393 kts | 72° |
| 2026-05-07 14:01 | 23.37924 | 90.99802 | 11550 ft | 389 kts | 72° |
| 2026-05-07 14:02 | 23.38717 | 91.02618 | 10820 ft | 381 kts | 72° |
| 2026-05-07 14:02 | 23.39483 | 91.05336 | 10237 ft | 370 kts | 72° |
| 2026-05-07 14:02 | 23.40219 | 91.07951 | 10020 ft | 348 kts | 72° |
| 2026-05-07 14:02 | 23.40898 | 91.10367 | 9835 ft | 328 kts | 72° |
| 2026-05-07 14:03 | 23.41553 | 91.12697 | 9585 ft | 312 kts | 72° |
| 2026-05-07 14:03 | 23.42145 | 91.14803 | 9074 ft | 307 kts | 72° |
| 2026-05-07 14:03 | 23.42897 | 91.16991 | 8522 ft | 304 kts | 58° |
| 2026-05-07 14:03 | 23.44288 | 91.18660 | 8125 ft | 299 kts | 33° |
| 2026-05-07 14:04 | 23.46160 | 91.19529 | 7732 ft | 293 kts | 8° |
| 2026-05-07 14:04 | 23.48183 | 91.19783 | 7343 ft | 290 kts | 2° |
| 2026-05-07 14:04 | 23.50184 | 91.19907 | 6961 ft | 288 kts | 2° |
| 2026-05-07 14:04 | 23.52192 | 91.20034 | 6600 ft | 286 kts | 2° |
| 2026-05-07 14:05 | 23.54168 | 91.20191 | 6223 ft | 284 kts | 4° |
| 2026-05-07 14:05 | 23.56064 | 91.20368 | 5853 ft | 283 kts | 4° |
| 2026-05-07 14:05 | 23.58016 | 91.20566 | 5472 ft | 281 kts | 4° |
| 2026-05-07 14:05 | 23.59950 | 91.20769 | 5096 ft | 279 kts | 5° |
| 2026-05-07 14:06 | 23.61885 | 91.20975 | 4715 ft | 277 kts | 5° |
| 2026-05-07 14:06 | 23.63795 | 91.21204 | 4334 ft | 276 kts | 9° |
| 2026-05-07 14:06 | 23.65653 | 91.21738 | 3941 ft | 275 kts | 17° |
| 2026-05-07 14:06 | 23.67447 | 91.22374 | 3736 ft | 267 kts | 17° |
| 2026-05-07 14:07 | 23.69191 | 91.22875 | 3641 ft | 255 kts | 8° |
| 2026-05-07 14:07 | 23.70825 | 91.23010 | 3541 ft | 244 kts | 1° |
| 2026-05-07 14:07 | 23.72498 | 91.23073 | 3405 ft | 236 kts | 1° |
| 2026-05-07 14:07 | 23.74114 | 91.23146 | 3106 ft | 233 kts | 2° |
| 2026-05-07 14:08 | 23.75721 | 91.23223 | 2782 ft | 232 kts | 2° |
| 2026-05-07 14:08 | 23.77318 | 91.23300 | 2350 ft | 236 kts | 2° |
| 2026-05-07 14:08 | 23.78982 | 91.23380 | 1947 ft | 237 kts | 2° |
| 2026-05-07 14:08 | 23.80585 | 91.23458 | 1801 ft | 226 kts | 2° |
| 2026-05-07 14:09 | 23.81106 | 91.23483 | 1795 ft | 220 kts | 2° |